Latest Weather Observations for Samuel Hill

IDQ60801

Issued at 9:32 pm EST Saturday 28 May 2016 (issued every 30 minutes, with the page automatically refreshed every 10 minutes)

About weather observations | Map of weather stations | Latest weather observations for QLD | Other Formats
Station Details ID: 033308 Name: SAMUEL HILL AERO Lat: -22.74 Lon: 150.66 Height: 31.0 m
Data from the previous 72 hours. | See also: Recent months at Samuel Hill
Date/Time
EST
Temp
°C
App
Temp
°C
Dew
Point
Rel
Hum
%
Delta-T
°C
Wind Press
QNH
hPa
Press
MSL
hPa
Rain
since 9 am
mm
Dir
 
Spd
km/h
Gust
km/h
Spd
kts
Gust
kts
28/09:00pm 15.9 17.2 14.1 89 1.0 CALM 0 0 0 0 1015.8 1015.7 0.0
28/08:30pm 16.4 17.9 14.6 89 1.0 CALM 0 0 0 0 1015.7 1015.6 0.0
28/08:00pm 16.8 18.3 14.6 87 1.3 CALM 0 0 0 0 1015.5 1015.4 0.0
28/07:30pm 17.9 18.5 15.3 85 1.5 WSW 6 9 3 5 1015.3 1015.2 0.0
28/07:00pm 18.8 20.8 15.9 83 1.7 CALM 0 0 0 0 1015.0 1014.9 0.0
28/06:30pm 19.3 19.6 16.0 81 2.0 NE 9 11 5 6 1014.6 1014.5 0.0
28/06:00pm 19.8 20.2 14.8 73 2.9 NE 6 7 3 4 1014.2 1014.1 0.0
28/05:30pm 21.6 22.7 14.7 65 4.1 WSW 2 7 1 4 1013.8 1013.7 0.0
28/05:00pm 24.4 25.2 14.8 55 5.7 WSW 4 6 2 3 1013.5 1013.4 0.0
28/04:30pm 25.2 25.1 13.4 48 6.9 WSW 6 7 3 4 1013.2 1013.1 0.0
28/04:00pm 26.3 26.1 13.1 44 7.7 WSW 6 9 3 5 1013.1 1013.0 0.0
28/03:30pm 26.6 25.8 13.0 43 8.0 WSW 9 11 5 6 1012.9 1012.8 0.0
28/03:00pm 25.6 25.0 12.4 43 7.6 NW 7 11 4 6 1012.7 1012.6 0.0
28/02:30pm 26.1 24.5 12.9 44 7.7 WSW 13 20 7 11 1013.0 1012.9 0.0
28/02:00pm 25.3 23.7 12.9 46 7.2 SW 13 20 7 11 1013.3 1013.2 0.0
28/01:30pm 25.2 23.2 12.8 46 7.2 SW 15 20 8 11 1013.3 1013.2 0.0
28/01:00pm 25.5 24.1 13.4 47 7.1 SW 13 20 7 11 1013.7 1013.6 0.0
28/12:30pm 25.3 24.0 13.8 49 6.8 SW 13 20 7 11 1014.1 1014.0 0.0
28/12:00pm 24.6 23.4 14.1 52 6.2 WSW 13 17 7 9 1014.5 1014.4 0.0
28/11:30am 23.9 22.5 13.4 51 6.1 W 13 20 7 11 1014.8 1014.7 0.0
28/11:00am 24.1 22.3 13.3 51 6.3 W 15 20 8 11 1015.1 1015.0 0.0
28/10:30am 24.2 22.8 13.4 51 6.3 WSW 13 24 7 13 1015.5 1015.4 0.0
28/10:00am 23.4 21.2 13.3 53 5.8 WSW 17 24 9 13 1015.8 1015.7 0.0
28/09:30am 23.5 22.3 13.9 55 5.6 WSW 13 20 7 11 1015.8 1015.7 0.0
28/09:00am 22.9 21.1 12.2 51 6.1 WSW 13 19 7 10 1015.8 1015.7 0.0
28/08:30am 22.4 20.7 12.6 54 5.6 WSW 13 19 7 10 1015.7 1015.6 0.0
28/08:00am 21.8 19.4 11.5 52 5.7 WSW 15 20 8 11 1015.3 1015.2 0.0
28/07:30am 19.7 21.3 14.9 74 2.8 CALM 0 0 0 0 1015.0 1014.9 0.0
28/07:00am 16.8 18.3 14.6 87 1.3 CALM 0 0 0 0 1014.6 1014.5 0.0
28/06:30am 17.7 19.4 15.1 85 1.5 CALM 0 0 0 0 1014.2 1014.1 0.0
28/06:00am 17.9 18.1 14.6 81 1.9 NNW 7 7 4 4 1013.7 1013.6 0.0
28/05:30am 18.2 18.9 15.5 84 1.6 NNE 6 7 3 4 1013.5 1013.4 0.0
28/05:00am 17.9 19.5 14.8 82 1.8 CALM 0 0 0 0 1013.2 1013.1 0.0
28/04:30am 17.6 19.0 14.5 82 1.8 CALM 0 0 0 0 1013.0 1012.9 0.0
28/04:00am 18.0 18.5 14.1 78 2.2 NNE 4 7 2 4 1012.5 1012.4 0.0
28/03:30am 18.0 17.8 13.1 73 2.8 NE 6 7 3 4 1012.5 1012.4 0.0
28/03:00am 16.9 16.2 13.2 79 2.1 N 9 11 5 6 1012.4 1012.3 0.0
28/02:30am 17.7 18.1 11.3 66 3.5 CALM 0 0 0 0 1012.2 1012.1 0.0
28/02:00am 18.5 19.1 12.0 66 3.6 CALM 0 0 0 0 1012.1 1012.0 0.0
28/01:30am 21.1 20.1 10.3 50 5.9 SSW 6 11 3 6 1012.3 1012.2 0.0
28/01:00am 23.2 21.0 9.2 41 7.5 SSW 11 15 6 8 1012.2 1012.1 0.0
28/12:30am 23.4 21.7 9.8 42 7.4 S 9 19 5 10 1012.3 1012.2 0.0
28/12:00am 23.0 21.4 11.4 48 6.5 S 11 15 6 8 1012.5 1012.4 0.0
 
Date/Time
EST
Temp
°C
App
Temp
°C
Dew
Point
Rel
Hum
%
Delta-T
°C
Wind Press
QNH
hPa
Press
MSL
hPa
Rain
since 9 am
mm
Dir
 
Spd
km/h
Gust
km/h
Spd
kts
Gust
kts
27/11:30pm 24.1 22.7 12.1 47 6.8 S 11 22 6 12 1012.8 1012.7 0.0
27/11:00pm 23.7 23.0 14.4 56 5.5 S 11 20 6 11 1012.9 1012.8 0.0
27/10:30pm 24.5 23.9 16.7 61 4.8 S 15 22 8 12 1012.9 1012.8 0.0
27/10:00pm 24.0 27.0 21.9 88 1.4 WSW 9 15 5 8 1012.5 1012.4 0.0
27/09:30pm 23.5 26.6 22.1 92 0.9 WNW 9 17 5 9 1012.2 1012.1 0.0
27/09:00pm 23.6 26.9 21.9 90 1.1 N 7 9 4 5 1011.4 1011.3 0.0
27/08:30pm 23.9 27.6 22.2 90 1.1 WNW 6 7 3 4 1011.4 1011.3 0.0
27/08:00pm 23.9 27.4 22.2 90 1.1 NW 7 9 4 5 1011.0 1010.9 0.0
27/07:30pm 24.0 27.6 22.1 89 1.3 NNW 6 9 3 5 1010.6 1010.5 0.0
27/07:00pm 24.1 27.1 22.0 88 1.4 NNW 9 13 5 7 1010.3 1010.2 0.0
27/06:30pm 24.4 27.0 21.9 86 1.7 NW 11 20 6 11 1009.9 1009.8 0.0
27/06:00pm 24.5 27.0 21.8 85 1.8 NNW 11 17 6 9 1009.5 1009.4 0.0
27/05:30pm 24.7 26.6 21.4 82 2.2 NNW 13 22 7 12 1009.2 1009.1 0.0
27/05:00pm 25.3 26.3 21.0 77 2.8 NNW 17 28 9 15 1008.9 1008.8 0.0
27/04:30pm 25.9 26.3 20.9 74 3.3 NNW 20 30 11 16 1008.8 1008.7 0.0
27/04:00pm 26.6 27.0 20.9 71 3.8 NNW 20 32 11 17 1008.6 1008.5 0.0
27/03:30pm 27.1 26.4 20.2 66 4.5 NNW 24 41 13 22 1008.4 1008.3 0.0
27/03:00pm 27.3 26.9 20.9 68 4.2 NNW 24 32 13 17 1008.3 1008.2 0.0
27/02:30pm 27.3 25.7 20.1 64 4.7 NNW 28 35 15 19 1008.2 1008.1 0.0
27/02:00pm 27.6 27.4 21.2 68 4.3 NNW 24 43 13 23 1008.5 1008.4 0.0
27/01:30pm 27.5 27.6 21.8 71 3.8 NNW 24 33 13 18 1008.7 1008.6 0.0
27/01:00pm 27.2 27.2 21.7 72 3.7 N 24 35 13 19 1009.2 1009.1 0.0
27/12:30pm 27.1 27.1 21.6 72 3.7 NNW 24 35 13 19 1009.9 1009.8 0.0
27/12:00pm 27.1 27.2 21.8 73 3.6 N 24 39 13 21 1010.6 1010.5 0.0
27/11:30am 27.5 28.5 21.8 71 3.8 NNW 19 30 10 16 1011.1 1011.0 0.0
27/11:00am 26.9 27.5 21.4 72 3.7 NNW 20 30 11 16 1011.4 1011.3 0.0
27/10:30am 26.9 26.9 21.0 70 3.9 NNW 22 32 12 17 1011.9 1011.8 0.0
27/10:00am 26.5 25.9 20.6 70 3.9 NNW 24 35 13 19 1012.3 1012.2 0.0
27/09:30am 26.2 26.5 20.8 72 3.6 NNW 20 32 11 17 1012.5 1012.4 0.0
27/09:00am 25.4 25.4 20.9 76 3.0 NNW 22 39 12 21 1012.5 1012.4 0.0
27/08:51am 24.8 24.6 20.5 77 2.8 NNW 22 33 12 18 1012.5 1012.4 0.0
27/08:30am 24.6 25.0 20.7 79 2.6 NNW 19 28 10 15 1012.4 1012.3 0.0
27/08:14am 24.2 24.9 20.5 80 2.4 NNW 17 30 9 16 1012.5 1012.4 0.0
27/08:00am 24.3 25.1 20.6 80 2.4 NNW 17 28 9 15 1012.3 1012.2 0.0
27/07:30am 23.8 25.3 20.5 82 2.1 NNW 13 22 7 12 1012.0 1011.9 0.0
27/07:00am 23.4 25.2 20.3 83 2.0 NNW 11 22 6 12 1012.0 1011.9 0.0
27/06:30am 23.1 23.6 20.1 83 1.9 NW 17 28 9 15 1011.8 1011.7 0.0
27/06:00am 22.9 23.4 20.1 84 1.8 NW 17 24 9 13 1011.4 1011.3 0.0
27/05:30am 22.9 23.7 19.9 83 1.9 NW 15 20 8 11 1011.2 1011.1 0.0
27/05:00am 22.9 24.2 20.2 85 1.7 NNW 13 19 7 10 1011.1 1011.0 0.0
27/04:30am 22.7 24.8 20.2 86 1.6 NNW 9 13 5 7 1011.0 1010.9 0.0
27/04:00am 22.2 24.2 20.7 91 1.0 NNW 11 24 6 13 1010.9 1010.8 0.0
27/03:30am 20.1 22.4 19.4 96 0.4 NW 6 11 3 6 1011.0 1010.9 0.0
27/03:00am 18.2 20.0 17.4 95 0.5 NNE 4 6 2 3 1011.1 1011.0 0.0
27/02:30am 16.8 18.7 15.7 93 0.6 CALM 0 0 0 0 1011.3 1011.2 0.0
27/02:00am 16.8 18.7 15.7 93 0.6 CALM 0 0 0 0 1011.7 1011.6 0.0
27/01:30am 16.8 18.6 15.5 92 0.8 CALM 0 0 0 0 1012.0 1011.9 0.0
27/01:00am 16.7 18.4 15.2 91 0.9 CALM 0 0 0 0 1012.2 1012.1 0.0
27/12:30am 17.6 18.6 16.3 92 0.8 N 6 9 3 5 1012.4 1012.3 0.0
27/12:00am 17.5 17.9 16.2 92 0.8 NNW 9 11 5 6 1012.6 1012.5 0.0
 
Date/Time
EST
Temp
°C
App
Temp
°C
Dew
Point
Rel
Hum
%
Delta-T
°C
Wind Press
QNH
hPa
Press
MSL
hPa
Rain
since 9 am
mm
Dir
 
Spd
km/h
Gust
km/h
Spd
kts
Gust
kts
26/11:30pm 18.1 19.4 17.0 93 0.7 NNW 6 7 3 4 1012.8 1012.7 0.0
26/11:00pm 17.4 17.7 16.1 92 0.8 N 9 11 5 6 1012.8 1012.7 0.0
26/10:30pm 17.2 17.8 15.7 91 0.9 NNW 7 9 4 5 1013.3 1013.2 0.0
26/10:00pm 17.3 18.8 15.6 90 1.0 NNW 2 6 1 3 1013.4 1013.3 0.0
26/09:30pm 17.5 19.4 15.7 89 1.1 CALM 0 0 0 0 1013.8 1013.7 0.0
26/09:00pm 18.0 20.1 16.3 90 1.0 CALM 0 0 0 0 1013.9 1013.8 0.0
26/08:30pm 18.2 20.4 16.4 89 1.1 CALM 0 0 0 0 1014.1 1014.0 0.0
26/08:00pm 18.5 19.9 16.3 87 1.3 NNE 4 6 2 3 1014.1 1014.0 0.0
26/07:30pm 19.0 19.9 16.6 86 1.4 NNE 7 9 4 5 1014.0 1013.9 0.0
26/07:00pm 19.4 20.5 17.0 86 1.5 NNE 7 9 4 5 1014.0 1013.9 0.0
26/06:30pm 20.9 22.4 17.7 82 2.0 NNE 6 7 3 4 1013.9 1013.8 0.0
26/06:00pm 22.4 24.1 18.6 79 2.4 NNW 7 11 4 6 1013.4 1013.3 0.0
26/05:30pm 23.1 24.1 18.6 76 2.8 NNW 11 17 6 9 1013.0 1012.9 0.0
26/05:00pm 24.1 23.9 18.5 71 3.5 NNW 17 24 9 13 1012.5 1012.4 0.0
26/04:30pm 24.9 24.5 18.1 66 4.3 NNW 17 28 9 15 1012.1 1012.0 0.0
26/04:00pm 25.9 25.7 18.6 64 4.7 NNW 17 26 9 14 1011.8 1011.7 0.0
26/03:30pm 25.9 24.7 17.5 59 5.3 N 20 26 11 14 1011.8 1011.7 0.0
26/03:00pm 26.6 25.7 16.8 55 6.1 NNW 17 28 9 15 1012.4 1012.3 0.0
26/02:30pm 27.1 25.5 16.1 51 6.8 NNW 19 28 10 15 1013.1 1013.0 0.0
26/02:00pm 27.0 25.2 16.0 51 6.8 NNW 20 28 11 15 1013.3 1013.2 0.0
26/01:30pm 27.3 26.0 16.9 53 6.5 NNW 19 26 10 14 1013.7 1013.6 0.0
26/01:00pm 27.2 26.9 17.4 55 6.2 N 15 20 8 11 1013.9 1013.8 0.0
26/12:30pm 27.2 26.8 17.1 54 6.3 NNW 15 28 8 15 1014.4 1014.3 0.0
26/12:00pm 27.3 27.6 17.8 56 6.0 NNW 13 20 7 11 1015.0 1014.9 0.0
26/11:30am 26.8 27.1 17.8 57 5.7 NNW 13 19 7 10 1015.6 1015.5 0.0
26/11:00am 26.6 27.2 17.7 58 5.6 N 11 17 6 9 1016.0 1015.9 0.0
26/10:30am 26.1 26.1 18.2 61 5.0 NNW 15 20 8 11 1016.4 1016.3 0.0
26/10:00am 25.2 25.7 18.4 66 4.3 N 13 20 7 11 1016.7 1016.6 0.0
26/09:30am 24.6 26.5 19.0 71 3.6 N 7 11 4 6 1016.9 1016.8 0.0
26/09:00am 22.4 25.7 19.0 81 2.2 CALM 0 0 0 0 1017.1 1017.0 0.0
26/08:30am 20.5 23.4 18.1 86 1.5 CALM 0 0 0 0 1017.1 1017.0 0.0
26/08:00am 18.1 20.3 16.4 90 1.0 CALM 0 0 0 0 1017.0 1016.9 0.0
26/07:30am 16.3 18.0 15.2 93 0.6 CALM 0 0 0 0 1016.9 1016.8 0.0
26/07:00am 14.5 15.6 13.5 94 0.6 CALM 0 0 0 0 1016.7 1016.6 0.0
26/06:30am 13.6 14.4 12.7 94 0.5 CALM 0 0 0 0 1016.5 1016.4 0.0
26/06:29am 13.6 14.4 12.7 94 0.5 CALM 0 0 0 0 1016.5 1016.4 0.0
26/06:10am 13.9 14.8 13.0 94 0.5 CALM 0 0 0 0 1016.4 1016.3 0.0
26/06:00am 14.0 15.0 13.1 94 0.5 CALM 0 0 0 0 1016.3 1016.2 0.0
26/05:56am 14.1 15.1 13.1 94 0.6 CALM 0 0 0 0 1016.2 1016.1 0.0
26/05:30am 14.0 15.0 13.1 94 0.5 CALM 0 0 0 0 1016.0 1015.9 0.0
26/05:28am 14.0 15.0 13.1 94 0.5 CALM 0 0 0 0 1016.0 1015.9 0.0
26/05:24am 13.9 14.8 13.0 94 0.5 CALM 0 0 0 0 1016.0 1015.9 0.0
26/05:07am 14.1 15.0 13.0 93 0.6 CALM 0 0 0 0 1015.9 1015.8 0.0
26/05:00am 14.1 15.0 13.0 93 0.6 CALM 0 0 0 0 1016.0 1015.9 0.0
26/04:47am 14.1 15.0 13.0 93 0.6 CALM 0 0 0 0 1015.9 1015.8 0.0
26/04:30am 14.1 15.0 13.0 93 0.6 CALM 0 0 0 0 1015.9 1015.8 0.0
26/04:00am 14.1 15.0 13.0 93 0.6 CALM 0 0 0 0 1015.7 1015.6 0.0
26/03:30am 14.4 15.4 13.3 93 0.6 CALM 0 0 0 0 1015.9 1015.8 0.0
26/03:00am 14.5 15.6 13.4 93 0.6 CALM 0 0 0 0 1016.0 1015.9 0.0
26/02:30am 14.4 15.4 13.3 93 0.6 CALM 0 0 0 0 1016.1 1016.0 0.0
26/02:00am 14.8 16.0 13.7 93 0.6 CALM 0 0 0 0 1016.5 1016.4 0.0
26/01:30am 14.8 16.0 13.7 93 0.6 CALM 0 0 0 0 1016.6 1016.5 0.0
26/01:00am 14.5 15.5 13.2 92 0.7 CALM 0 0 0 0 1016.8 1016.7 0.0
26/12:30am 14.8 16.0 13.7 93 0.6 CALM 0 0 0 0 1017.0 1016.9 0.0
26/12:00am 14.5 15.5 13.2 92 0.7 CALM 0 0 0 0 1016.9 1016.8 0.0
 
Date/Time
EST
Temp
°C
App
Temp
°C
Dew
Point
Rel
Hum
%
Delta-T
°C
Wind Press
QNH
hPa
Press
MSL
hPa
Rain
since 9 am
mm
Dir
 
Spd
km/h
Gust
km/h
Spd
kts
Gust
kts
25/11:30pm 15.0 16.2 13.7 92 0.7 CALM 0 0 0 0 1017.0 1016.9 0.0
25/11:00pm 15.0 16.2 13.7 92 0.7 CALM 0 0 0 0 1016.9 1016.8 0.0
25/10:30pm 15.2 16.4 13.9 92 0.7 CALM 0 0 0 0 1017.2 1017.1 0.0
25/10:00pm 15.5 16.8 14.0 91 0.8 CALM 0 0 0 0 1017.1 1017.0 0.0

Other Formats:

Comma delimited format used in spreadsheet applications
http://www.bom.gov.au/fwo/IDQ60801/IDQ60801.94370.axf

JavaScript Object Notation format (JSON) in row-major order
http://www.bom.gov.au/fwo/IDQ60801/IDQ60801.94370.json